Time;durP1;ratioP1;P1;durP2;ratioP2;P2;SDS_P1;SDS_P2;PMS_P1;PMS_P2;Temp;Humidity;BMP_temperature;BMP_pressure;BME280_temperature;BME280_humidity;BME280_pressure;Samples;Min_cycle;Max_cycle;Signal;HPM_P1;HPM_P2
2021/12/05 00:19:11;;;;;;;2.95;0.80;;;4.40;98.60;;;;;;5062960;28;20051;-57
2021/12/05 00:22:04;;;;;;;8.43;0.85;;;4.30;98.70;;;;;;5068186;28;20385;-55
2021/12/05 00:24:33;;;;;;;3.50;0.90;;;4.30;99.00;;;;;;5069227;28;20049;-57
2021/12/05 00:27:05;;;;;;;5.75;1.00;;;4.30;98.90;;;;;;5068749;28;20052;-58
2021/12/05 00:32:09;;;;;;;2.83;1.13;;;4.30;99.50;;;;;;5068001;28;20048;-57
2021/12/05 00:40:12;;;;;;;2.40;1.10;;;4.30;99.60;;;;;;5068681;28;20060;-57
2021/12/05 00:54:16;;;;;;;2.47;1.05;;;4.30;99.90;;;;;;5068567;28;20067;-58
2021/12/05 00:59:28;;;;;;;5.03;1.25;;;4.30;99.70;;;;;;5047038;28;20059;-57
2021/12/05 01:15:31;;;;;;;2.92;0.85;;;4.40;99.20;;;;;;5032668;28;20564;-57
2021/12/05 01:18:09;;;;;;;12.40;1.60;;;4.50;99.40;;;;;;5058673;28;20052;-57
2021/12/05 01:20:39;;;;;;;10.38;1.80;;;4.50;99.30;;;;;;5066202;28;20045;-57
2021/12/05 01:23:38;;;;;;;4.20;1.30;;;4.50;99.10;;;;;;5066449;28;20048;-57
2021/12/05 01:28:49;;;;;;;9.20;2.67;;;4.50;99.60;;;;;;5066866;28;20055;-57
2021/12/05 01:34:08;;;;;;;8.43;1.13;;;4.50;99.40;;;;;;5068372;28;20713;-56
2021/12/05 01:36:47;;;;;;;4.88;1.65;;;4.60;99.30;;;;;;5067387;28;20045;-58
2021/12/05 01:39:55;;;;;;;2.05;1.20;;;4.60;99.30;;;;;;5048304;28;20052;-58
2021/12/05 02:01:24;;;;;;;7.07;1.00;;;4.50;98.90;;;;;;5068268;28;20044;-57
2021/12/05 02:41:33;;;;;;;6.35;0.77;;;4.50;98.80;;;;;;5067523;28;20072;-57
2021/12/05 02:44:11;;;;;;;1.08;0.60;;;4.60;98.80;;;;;;5054723;28;20080;-57
2021/12/05 02:46:46;;;;;;;1.48;0.65;;;4.60;98.60;;;;;;5067674;28;20048;-57
2021/12/05 02:49:15;;;;;;;4.07;1.38;;;4.60;98.50;;;;;;5049226;28;20077;-58
2021/12/05 02:51:50;;;;;;;0.50;0.50;;;4.60;98.60;;;;;;5067306;28;20122;-57
2021/12/05 02:54:18;;;;;;;6.03;1.38;;;4.60;98.20;;;;;;5062982;28;20049;-57
2021/12/05 02:56:49;;;;;;;3.95;0.80;;;4.60;98.40;;;;;;5027487;28;20080;-59
2021/12/05 02:59:40;;;;;;;0.90;0.63;;;4.60;98.30;;;;;;5046505;28;20049;-57
2021/12/05 03:02:14;;;;;;;1.70;0.60;;;4.60;98.40;;;;;;5027180;28;20057;-58
2021/12/05 03:04:45;;;;;;;;;;;4.60;98.40;;;;;;5048881;28;20111;-58
2021/12/05 03:07:13;;;;;;;1.65;0.60;;;4.80;98.70;;;;;;5065889;28;20390;-57
2021/12/05 03:09:41;;;;;;;0.73;0.43;;;4.60;98.40;;;;;;5053859;28;20474;-58
2021/12/05 03:12:10;;;;;;;3.20;0.90;;;4.60;98.20;;;;;;5069550;28;20079;-58
2021/12/05 03:14:37;;;;;;;1.17;0.50;;;4.60;98.10;;;;;;5065977;28;20048;-56
2021/12/05 03:17:04;;;;;;;2.90;0.52;;;4.70;98.20;;;;;;5053676;28;20080;-56
2021/12/05 03:19:31;;;;;;;2.50;0.82;;;4.60;98.00;;;;;;5073729;28;20105;-56
2021/12/05 03:21:58;;;;;;;0.75;0.52;;;4.70;97.90;;;;;;5075844;28;20110;-58
2021/12/05 03:24:25;;;;;;;3.88;0.80;;;4.60;97.90;;;;;;5070806;28;20044;-58
2021/12/05 03:26:52;;;;;;;2.67;0.68;;;4.70;97.50;;;;;;5052711;28;20048;-58
2021/12/05 03:29:20;;;;;;;0.50;0.50;;;4.70;97.80;;;;;;5073224;28;20117;-58
2021/12/05 03:31:47;;;;;;;1.98;0.55;;;4.70;97.40;;;;;;5081538;28;20105;-57
2021/12/05 03:34:15;;;;;;;2.40;0.70;;;4.70;97.50;;;;;;5069363;28;20056;-58
2021/12/05 03:36:44;;;;;;;1.85;0.70;;;4.70;97.50;;;;;;5081938;28;20044;-58
2021/12/05 03:39:11;;;;;;;1.65;0.50;;;4.70;97.40;;;;;;5070926;28;20098;-57
2021/12/05 03:41:38;;;;;;;2.70;0.65;;;4.70;97.00;;;;;;5081128;28;20088;-56
2021/12/05 03:44:05;;;;;;;0.45;0.40;;;4.70;96.90;;;;;;5070513;28;20052;-58
2021/12/05 03:46:32;;;;;;;0.50;0.47;;;4.70;96.80;;;;;;5070002;28;20084;-58
2021/12/05 03:49:02;;;;;;;0.50;0.50;;;4.80;96.70;;;;;;5068941;28;20064;-58
2021/12/05 03:51:30;;;;;;;1.55;0.68;;;4.80;96.20;;;;;;5081366;28;20087;-57
2021/12/05 03:53:57;;;;;;;0.98;0.60;;;4.80;96.70;;;;;;5070519;28;20044;-58
2021/12/05 03:56:24;;;;;;;1.27;1.02;;;4.80;96.10;;;;;;5070046;28;20052;-58
2021/12/05 03:58:51;;;;;;;0.65;0.63;;;4.80;96.00;;;;;;5070214;28;20095;-57
2021/12/05 04:01:18;;;;;;;4.20;0.90;;;4.80;96.20;;;;;;5073972;28;20052;-56
2021/12/05 04:03:47;;;;;;;0.70;0.70;;;4.80;96.00;;;;;;5067644;28;20136;-55
2021/12/05 04:06:15;;;;;;;0.80;0.80;;;4.80;95.90;;;;;;5062840;28;20094;-58
2021/12/05 04:08:42;;;;;;;1.55;0.77;;;4.80;95.40;;;;;;5070184;28;20055;-58
2021/12/05 04:11:24;;;;;;;1.65;0.60;;;4.90;95.90;;;;;;5072508;28;20829;-58
2021/12/05 04:13:51;;;;;;;1.42;0.80;;;4.80;95.60;;;;;;5086858;28;20052;-57
2021/12/05 04:16:18;;;;;;;0.52;0.50;;;4.80;96.10;;;;;;5085100;28;20137;-56
2021/12/05 04:18:46;;;;;;;0.40;0.40;;;4.80;95.30;;;;;;5082523;28;20484;-55
2021/12/05 04:21:14;;;;;;;1.25;0.50;;;4.80;95.50;;;;;;5066128;28;20056;-58
2021/12/05 04:23:41;;;;;;;1.30;0.60;;;4.80;95.10;;;;;;5067739;28;20442;-53
2021/12/05 04:26:08;;;;;;;0.73;0.50;;;4.80;95.00;;;;;;5073617;28;20083;-55
2021/12/05 04:28:35;;;;;;;1.17;0.77;;;4.80;95.50;;;;;;5068378;28;20097;-57
2021/12/05 04:31:03;;;;;;;1.30;0.70;;;4.80;95.60;;;;;;5072682;28;20044;-57
2021/12/05 04:33:30;;;;;;;1.63;0.68;;;4.80;95.90;;;;;;5078249;28;20074;-55
2021/12/05 04:35:57;;;;;;;1.63;0.70;;;4.80;95.20;;;;;;5088913;28;20107;-53
2021/12/05 04:38:24;;;;;;;4.65;0.60;;;4.80;95.40;;;;;;5080786;28;20445;-59
2021/12/05 04:40:52;;;;;;;1.65;0.50;;;4.80;95.30;;;;;;5069787;28;20717;-58
2021/12/05 04:43:18;;;;;;;3.15;0.70;;;4.90;95.20;;;;;;5077051;28;20093;-59
2021/12/05 04:45:45;;;;;;;2.28;0.55;;;4.90;95.00;;;;;;5077753;28;20570;-57
2021/12/05 04:48:12;;;;;;;0.95;0.50;;;4.90;95.10;;;;;;5073899;28;20040;-60
2021/12/05 04:50:39;;;;;;;1.08;0.38;;;4.90;96.00;;;;;;5056041;28;20048;-59
2021/12/05 04:53:06;;;;;;;0.82;0.63;;;4.80;96.00;;;;;;5075852;28;20044;-59
2021/12/05 04:55:33;;;;;;;2.47;0.77;;;4.70;96.00;;;;;;5069637;28;20060;-59
2021/12/05 04:58:01;;;;;;;1.67;1.27;;;4.70;96.60;;;;;;5072345;28;20068;-59
2021/12/05 05:00:30;;;;;;;4.00;0.60;;;4.70;96.40;;;;;;5085677;28;20490;-58
2021/12/05 05:02:57;;;;;;;0.93;0.68;;;4.60;96.40;;;;;;5066315;28;20048;-58
2021/12/05 05:05:25;;;;;;;0.60;0.60;;;4.60;96.30;;;;;;5073773;28;20102;-58
2021/12/05 05:07:53;;;;;;;0.85;0.50;;;4.60;96.80;;;;;;5072846;28;20051;-57
2021/12/05 05:10:25;;;;;;;1.25;0.50;;;4.60;96.40;;;;;;5067318;28;20056;-57
2021/12/05 05:12:52;;;;;;;4.22;0.82;;;4.70;96.40;;;;;;5072296;28;20048;-57
2021/12/05 05:15:24;;;;;;;1.25;0.73;;;4.70;96.20;;;;;;5080064;28;20478;-57
2021/12/05 05:17:53;;;;;;;0.85;0.60;;;4.60;96.00;;;;;;5083911;28;20056;-59
2021/12/05 05:44:30;;;;;;;0.52;0.52;;;4.80;95.60;;;;;;5083523;28;20090;-58
2021/12/05 05:47:08;;;;;;;0.80;0.60;;;4.80;95.70;;;;;;5071967;28;20098;-57
2021/12/05 05:52:14;;;;;;;1.70;0.75;;;4.80;95.70;;;;;;5084828;28;20048;-57
2021/12/05 05:54:44;;;;;;;1.20;0.70;;;4.80;95.90;;;;;;5080926;28;20048;-57
2021/12/05 06:00:05;;;;;;;0.65;0.50;;;4.80;95.70;;;;;;5083421;28;20047;-56
2021/12/05 06:05:17;;;;;;;1.38;0.60;;;4.80;96.40;;;;;;5071799;28;20088;-58
2021/12/05 06:07:45;;;;;;;1.65;0.77;;;4.80;96.10;;;;;;5075056;28;20075;-59
2021/12/05 06:10:15;;;;;;;1.33;0.60;;;4.80;96.10;;;;;;5070049;28;20486;-58
2021/12/05 06:12:42;;;;;;;1.00;0.70;;;4.80;96.00;;;;;;5061522;28;20045;-59
2021/12/05 06:15:10;;;;;;;1.83;0.82;;;4.80;95.80;;;;;;5067573;28;20056;-58
2021/12/05 06:17:37;;;;;;;1.80;0.50;;;4.80;95.90;;;;;;5067618;28;20138;-58
2021/12/05 06:20:09;;;;;;;2.58;0.73;;;4.80;95.90;;;;;;5044537;28;20129;-59
2021/12/05 06:22:35;;;;;;;6.22;0.60;;;4.90;95.90;;;;;;5071590;28;20084;-58
2021/12/05 06:25:04;;;;;;;1.30;0.77;;;4.80;95.60;;;;;;5059889;28;20124;-58
2021/12/05 06:27:31;;;;;;;2.00;0.90;;;4.80;95.60;;;;;;5074031;28;20110;-57
2021/12/05 06:30:09;;;;;;;1.90;1.23;;;4.80;95.40;;;;;;5057075;28;20045;-57
2021/12/05 06:46:12;;;;;;;3.15;0.80;;;4.60;96.90;;;;;;5037302;28;20041;-57
2021/12/05 06:48:42;;;;;;;3.03;0.77;;;4.60;97.20;;;;;;5068509;28;20083;-58
2021/12/05 06:51:10;;;;;;;1.38;0.80;;;4.60;97.30;;;;;;5068994;28;20048;-58
2021/12/05 06:53:37;;;;;;;1.75;0.77;;;4.60;97.50;;;;;;5073364;28;20499;-58
2021/12/05 06:56:04;;;;;;;1.00;0.90;;;4.60;97.10;;;;;;5059655;28;20049;-57
2021/12/05 06:58:32;;;;;;;0.73;0.63;;;4.60;97.30;;;;;;5076718;28;20356;-58
2021/12/05 07:01:01;;;;;;;3.67;1.00;;;4.60;97.30;;;;;;5043878;28;20040;-58
2021/12/05 07:03:31;;;;;;;0.65;0.60;;;4.60;97.50;;;;;;5061521;28;20048;-59
2021/12/05 07:08:28;;;;;;;1.05;0.95;;;4.60;97.50;;;;;;5071850;28;20044;-58
2021/12/05 07:16:00;;;;;;;1.50;0.88;;;4.50;97.70;;;;;;5061671;28;20036;-59
2021/12/05 07:21:18;;;;;;;1.17;0.70;;;4.50;98.20;;;;;;5062235;28;20112;-59
2021/12/05 07:23:57;;;;;;;1.10;1.00;;;4.50;98.00;;;;;;5068794;28;20037;-58
2021/12/05 07:27:10;;;;;;;0.90;0.85;;;4.50;98.20;;;;;;5058406;28;20496;-60
2021/12/05 07:40:22;;;;;;;2.28;1.08;;;4.50;98.40;;;;;;5055159;28;20453;-59
2021/12/05 07:40:30;;;;;;;1.90;1.20;;;4.50;98.30;;;;;;5062092;28;20205;-61
2021/12/05 07:43:10;;;;;;;4.95;1.30;;;4.50;98.50;;;;;;5044241;28;20040;-59
2021/12/05 07:45:46;;;;;;;3.05;1.50;;;4.50;98.50;;;;;;5059357;28;20056;-58
2021/12/05 07:48:18;;;;;;;3.40;0.88;;;4.50;98.50;;;;;;5064460;28;20049;-57
2021/12/05 07:53:36;;;;;;;0.77;0.77;;;4.40;98.90;;;;;;5070255;28;20041;-55
2021/12/05 07:56:11;;;;;;;2.50;1.02;;;4.30;98.90;;;;;;5075306;28;20064;-56
2021/12/05 08:14:20;;;;;;;2.83;0.98;;;4.30;98.90;;;;;;5070681;28;20086;-58
2021/12/05 08:15:11;;;;;;;6.28;1.52;;;4.30;99.40;;;;;;5070297;28;20098;-57
2021/12/05 08:17:39;;;;;;;5.13;1.40;;;4.30;99.20;;;;;;5068947;28;20110;-56
2021/12/05 08:20:07;;;;;;;3.60;1.30;;;4.40;99.30;;;;;;5040776;28;20068;-56
2021/12/05 08:22:34;;;;;;;2.10;1.42;;;4.30;99.10;;;;;;5057289;28;20056;-56
2021/12/05 08:25:09;;;;;;;2.13;1.08;;;4.40;99.00;;;;;;5064505;28;20040;-58
2021/12/05 08:27:39;;;;;;;2.33;1.17;;;4.40;99.20;;;;;;5047063;28;20080;-56
2021/12/05 08:30:10;;;;;;;2.78;1.27;;;4.40;99.30;;;;;;5076692;28;20072;-57
2021/12/05 08:32:58;;;;;;;2.00;1.20;;;4.40;98.90;;;;;;5064542;28;20464;-56
2021/12/05 09:30:41;;;;;;;3.90;1.60;;;4.90;98.30;;;;;;5059346;28;20468;-59
2021/12/05 10:14:33;;;;;;;4.45;2.75;;;5.30;97.50;;;;;;5053971;28;20045;-56
2021/12/05 10:20:15;;;;;;;8.90;1.80;;;5.40;97.50;;;;;;5033009;28;20060;-57
2021/12/05 10:33:45;;;;;;;3.65;1.52;;;5.40;97.40;;;;;;5039210;28;20102;-59
2021/12/05 10:36:23;;;;;;;3.50;1.13;;;5.50;97.60;;;;;;5031890;28;20049;-58
2021/12/05 10:38:53;;;;;;;2.05;1.40;;;5.40;96.80;;;;;;5035190;28;20581;-56
2021/12/05 10:44:11;;;;;;;5.30;1.58;;;5.40;97.30;;;;;;5021360;28;20080;-58
2021/12/05 10:46:44;;;;;;;5.55;2.45;;;5.50;97.40;;;;;;5029152;28;20055;-58
2021/12/05 10:49:12;;;;;;;6.82;1.42;;;5.40;97.20;;;;;;5034555;28;20060;-57
2021/12/05 10:51:55;;;;;;;2.45;1.48;;;5.40;97.20;;;;;;5031043;28;20052;-58
2021/12/05 10:54:23;;;;;;;1.80;1.27;;;5.40;97.50;;;;;;5035985;28;20077;-59
2021/12/05 10:56:53;;;;;;;3.92;1.77;;;5.50;97.40;;;;;;5030363;28;20077;-57
2021/12/05 10:59:23;;;;;;;4.95;1.05;;;5.40;97.20;;;;;;5034505;28;20045;-59
2021/12/05 11:01:57;;;;;;;4.95;1.60;;;5.50;97.30;;;;;;5028958;28;20056;-58
2021/12/05 11:04:45;;;;;;;3.55;1.60;;;5.50;97.30;;;;;;5032302;28;20053;-59
2021/12/05 11:07:17;;;;;;;4.40;1.40;;;5.50;97.30;;;;;;5033749;28;20049;-56
2021/12/05 11:09:57;;;;;;;4.93;1.20;;;5.50;97.10;;;;;;5031498;28;20348;-57
2021/12/05 11:12:27;;;;;;;3.42;1.58;;;5.50;96.90;;;;;;5031504;28;20080;-56
2021/12/05 11:15:00;;;;;;;6.50;1.92;;;5.60;97.50;;;;;;5033728;28;20053;-59
2021/12/05 11:17:33;;;;;;;2.38;1.08;;;5.60;97.30;;;;;;5025529;28;20059;-60
2021/12/05 11:20:09;;;;;;;3.58;1.10;;;5.60;97.30;;;;;;5055193;28;20083;-54
2021/12/05 11:22:40;;;;;;;3.60;1.17;;;5.60;97.40;;;;;;5050270;28;20448;-56
2021/12/05 11:25:22;;;;;;;6.32;1.55;;;5.60;97.30;;;;;;5053176;28;20060;-58
2021/12/05 11:27:50;;;;;;;4.13;2.13;;;5.70;97.70;;;;;;5049440;28;20570;-58
2021/12/05 11:30:19;;;;;;;3.05;1.27;;;5.70;97.30;;;;;;5024476;28;20428;-57
2021/12/05 11:32:59;;;;;;;2.38;1.20;;;5.80;97.30;;;;;;5053750;28;20052;-55
2021/12/05 11:35:35;;;;;;;3.70;1.40;;;5.80;96.80;;;;;;5058561;28;20044;-58
2021/12/05 11:38:19;;;;;;;4.78;1.42;;;5.80;97.30;;;;;;5057496;28;20053;-56
2021/12/05 11:41:03;;;;;;;3.03;1.23;;;5.80;97.30;;;;;;5062137;28;20079;-55
2021/12/05 11:43:45;;;;;;;3.90;1.67;;;5.90;97.30;;;;;;5042594;28;20044;-57
2021/12/05 11:46:15;;;;;;;5.05;1.60;;;5.90;97.10;;;;;;5060727;28;20053;-57
2021/12/05 11:48:59;;;;;;;3.28;1.50;;;5.90;97.50;;;;;;5062525;28;20053;-57
2021/12/05 11:51:44;;;;;;;6.28;2.08;;;5.90;97.30;;;;;;5054742;28;20486;-57
2021/12/05 11:54:29;;;;;;;6.88;2.30;;;5.90;97.10;;;;;;5058111;28;20048;-57
2021/12/05 11:57:17;;;;;;;7.15;1.67;;;6.00;97.20;;;;;;5056525;28;20048;-57
2021/12/05 11:59:50;;;;;;;5.88;1.50;;;6.00;97.30;;;;;;5060601;28;20057;-58
2021/12/05 12:02:22;;;;;;;3.80;1.55;;;6.00;97.40;;;;;;5065121;28;20581;-57
2021/12/05 12:04:58;;;;;;;4.95;1.88;;;6.00;97.30;;;;;;5062378;28;20055;-58
2021/12/05 12:07:31;;;;;;;4.47;1.50;;;6.00;96.90;;;;;;5043766;28;20063;-57
2021/12/05 12:10:14;;;;;;;3.03;1.35;;;6.00;97.10;;;;;;5064671;28;20149;-58
2021/12/05 12:12:53;;;;;;;2.80;1.50;;;6.00;97.30;;;;;;5060254;28;20049;-57
2021/12/05 12:15:20;;;;;;;2.70;1.42;;;6.10;97.00;;;;;;5055253;28;20045;-59
2021/12/05 12:17:48;;;;;;;4.90;1.30;;;6.10;97.20;;;;;;5045773;28;20519;-57
2021/12/05 12:20:21;;;;;;;6.13;1.70;;;6.10;97.00;;;;;;5061983;28;20060;-58
2021/12/05 12:22:49;;;;;;;3.78;1.77;;;6.10;97.40;;;;;;5069915;28;20729;-57
2021/12/05 12:25:19;;;;;;;3.28;1.40;;;6.10;97.10;;;;;;5062144;28;20114;-58
2021/12/05 12:27:46;;;;;;;3.88;1.60;;;6.10;97.20;;;;;;5041910;28;20040;-58
2021/12/05 12:30:18;;;;;;;2.75;1.95;;;6.10;97.30;;;;;;5063769;28;20093;-59
2021/12/05 12:32:46;;;;;;;6.57;1.25;;;6.10;97.30;;;;;;5063601;28;20048;-57
2021/12/05 12:35:16;;;;;;;5.65;1.65;;;6.10;97.20;;;;;;5065120;28;20244;-59
2021/12/05 12:38:08;;;;;;;3.05;1.63;;;6.10;97.60;;;;;;5067602;28;20060;-58
2021/12/05 12:40:43;;;;;;;3.83;1.52;;;6.00;97.90;;;;;;4707698;28;10000531;-58
2021/12/05 12:43:36;;;;;;;5.82;1.92;;;6.00;98.10;;;;;;5058682;28;20400;-58
2021/12/05 12:46:22;;;;;;;3.55;1.98;;;5.90;98.40;;;;;;5055930;28;20049;-58
2021/12/05 12:48:56;;;;;;;2.65;1.70;;;5.90;98.40;;;;;;5059760;28;20057;-58
2021/12/05 12:51:51;;;;;;;3.78;2.05;;;5.80;98.50;;;;;;5043440;28;20049;-58
2021/12/05 12:54:28;;;;;;;10.50;3.50;;;5.80;98.50;;;;;;5037850;28;20076;-59
2021/12/05 12:57:16;;;;;;;6.53;2.67;;;5.80;98.70;;;;;;5054147;28;20091;-57
2021/12/05 12:59:46;;;;;;;3.08;2.22;;;5.80;98.60;;;;;;5066793;28;20056;-56
2021/12/05 13:10:35;;;;;;;5.28;3.33;;;5.70;98.40;;;;;;5075656;28;20048;-56
2021/12/05 13:13:13;;;;;;;5.90;2.85;;;5.80;98.40;;;;;;5052052;28;21037;-57
2021/12/05 13:15:52;;;;;;;3.60;2.30;;;5.80;98.20;;;;;;5072794;28;20133;-57
2021/12/05 13:18:26;;;;;;;6.10;2.92;;;5.80;98.30;;;;;;5056389;28;20122;-58
2021/12/05 13:20:57;;;;;;;4.95;2.58;;;5.80;98.30;;;;;;5068037;28;20106;-57
2021/12/05 13:23:36;;;;;;;8.48;2.75;;;5.80;98.30;;;;;;5056507;28;20098;-57
2021/12/05 13:26:20;;;;;;;3.67;2.30;;;5.90;98.30;;;;;;5042692;28;20122;-57
2021/12/05 13:28:51;;;;;;;4.00;2.42;;;5.80;98.30;;;;;;5057092;28;20048;-58
2021/12/05 13:31:27;;;;;;;3.92;2.53;;;5.90;98.40;;;;;;5062544;28;20067;-58
2021/12/05 13:34:16;;;;;;;4.07;2.30;;;5.90;98.60;;;;;;5056498;28;20049;-58
2021/12/05 13:36:44;;;;;;;6.05;2.80;;;5.90;98.90;;;;;;5068991;28;20465;-57
2021/12/05 13:39:30;;;;;;;6.47;3.15;;;5.90;98.70;;;;;;5061077;28;20419;-58
2021/12/05 13:42:06;;;;;;;9.57;2.78;;;5.90;99.30;;;;;;5055248;28;20500;-58
2021/12/05 13:45:18;;;;;;;13.65;2.78;;;5.80;99.20;;;;;;5058271;28;20490;-58
2021/12/05 13:47:44;;;;;;;7.15;2.63;;;5.80;99.30;;;;;;5014751;28;20594;-58
2021/12/05 13:50:29;;;;;;;5.43;3.50;;;5.80;99.40;;;;;;5064757;28;20365;-57
2021/12/05 13:52:59;;;;;;;8.38;4.15;;;5.80;99.70;;;;;;5066482;28;20090;-57
2021/12/05 13:55:44;;;;;;;6.15;3.08;;;5.90;99.40;;;;;;5063087;28;20051;-59
2021/12/05 13:58:21;;;;;;;7.30;3.10;;;5.90;99.40;;;;;;5041923;28;20598;-59
2021/12/05 14:01:22;;;;;;;6.10;3.13;;;5.90;99.30;;;;;;5064738;28;20048;-59
2021/12/05 14:03:54;;;;;;;13.57;4.47;;;5.90;99.60;;;;;;5053735;28;20371;-59
2021/12/05 14:06:36;;;;;;;11.63;4.47;;;5.80;99.60;;;;;;5059237;28;20045;-59
2021/12/05 14:09:17;;;;;;;10.00;4.13;;;5.80;99.80;;;;;;5054278;28;20048;-59
2021/12/05 14:11:46;;;;;;;8.00;3.17;;;5.80;99.90;;;;;;5065361;28;20044;-59
2021/12/05 14:14:13;;;;;;;10.05;6.38;;;5.80;99.90;;;;;;5035035;28;20049;-59
2021/12/05 14:16:41;;;;;;;12.88;5.60;;;5.80;99.90;;;;;;5066463;28;20044;-59
2021/12/05 14:19:11;;;;;;;10.73;8.88;;;5.80;99.90;;;;;;5068771;28;20514;-61
2021/12/05 14:21:42;;;;;;;12.65;7.65;;;5.80;99.90;;;;;;5061221;28;20086;-60
2021/12/05 14:24:09;;;;;;;10.13;5.18;;;5.80;99.90;;;;;;5067033;28;20056;-59
2021/12/05 14:26:39;;;;;;;14.23;5.50;;;5.80;99.90;;;;;;5061025;28;20491;-59
2021/12/05 14:29:14;;;;;;;14.50;5.63;;;5.80;99.90;;;;;;5047600;28;20049;-60
2021/12/05 14:31:43;;;;;;;9.70;5.03;;;5.90;99.90;;;;;;5064160;28;20194;-59
2021/12/05 14:34:10;;;;;;;;;;;5.90;99.90;;;;;;4720712;28;10000168;-60
2021/12/05 14:36:41;;;;;;;7.78;5.65;;;5.90;99.90;;;;;;5061357;28;19921;-58
2021/12/05 14:39:14;;;;;;;11.13;5.47;;;6.00;99.90;;;;;;5054899;28;20056;-58
2021/12/05 14:41:42;;;;;;;14.40;4.13;;;6.00;99.90;;;;;;5061470;28;20041;-61
2021/12/05 14:44:09;;;;;;;6.72;4.18;;;6.00;99.90;;;;;;5064015;28;20106;-58
2021/12/05 14:46:49;;;;;;;8.38;4.05;;;6.00;99.90;;;;;;5044284;28;20052;-59
2021/12/05 14:49:19;;;;;;;8.55;4.75;;;6.10;99.90;;;;;;5063344;28;20165;-58
2021/12/05 14:51:53;;;;;;;7.45;4.10;;;6.00;99.90;;;;;;5057476;28;20102;-60
2021/12/05 14:54:28;;;;;;;12.20;5.63;;;6.10;99.90;;;;;;5055318;28;20044;-59
2021/12/05 14:56:56;;;;;;;7.88;4.43;;;6.10;99.90;;;;;;5057823;28;20106;-59
2021/12/05 14:59:23;;;;;;;6.13;3.55;;;6.20;99.90;;;;;;5064090;28;20091;-60
2021/12/05 15:01:53;;;;;;;14.90;5.07;;;6.20;99.90;;;;;;5055684;28;20254;-59
2021/12/05 15:04:24;;;;;;;9.95;5.90;;;6.20;99.90;;;;;;5047877;28;20052;-59
2021/12/05 15:06:51;;;;;;;11.30;5.13;;;6.20;99.90;;;;;;5056604;28;20056;-59
2021/12/05 15:09:23;;;;;;;8.32;3.47;;;6.20;99.90;;;;;;5068362;28;20049;-59
2021/12/05 15:11:52;;;;;;;7.88;3.50;;;6.30;99.90;;;;;;5058257;28;20138;-58
2021/12/05 15:14:19;;;;;;;6.53;4.15;;;6.30;99.90;;;;;;5072603;28;20044;-59
2021/12/05 15:17:25;;;;;;;13.25;3.40;;;6.30;99.90;;;;;;5062165;28;20052;-59
2021/12/05 15:19:56;;;;;;;12.52;4.03;;;6.30;99.80;;;;;;5066037;28;20294;-59
2021/12/05 15:22:39;;;;;;;11.88;4.18;;;6.30;99.90;;;;;;5042733;28;20048;-58
2021/12/05 15:25:09;;;;;;;6.60;2.55;;;6.30;99.90;;;;;;5042024;28;20084;-59
2021/12/05 15:27:37;;;;;;;9.02;3.80;;;6.30;99.60;;;;;;5060017;28;20052;-57
2021/12/05 15:30:12;;;;;;;5.03;2.33;;;6.30;99.80;;;;;;5061372;28;20045;-57
2021/12/05 15:32:39;;;;;;;4.95;2.22;;;6.30;99.20;;;;;;5037826;28;20329;-59
2021/12/05 15:35:13;;;;;;;5.80;1.95;;;6.30;99.10;;;;;;5075218;28;20324;-54
2021/12/05 15:38:07;;;;;;;7.40;2.55;;;6.30;99.30;;;;;;5055388;28;20056;-59
2021/12/05 15:40:46;;;;;;;4.05;1.30;;;6.30;99.10;;;;;;5061293;28;20047;-58
2021/12/05 15:43:18;;;;;;;8.80;1.80;;;6.40;99.00;;;;;;5058664;28;20144;-58
2021/12/05 15:45:51;;;;;;;6.60;1.83;;;6.40;98.90;;;;;;5078727;28;20079;-58
2021/12/05 15:48:29;;;;;;;4.03;1.70;;;6.40;98.70;;;;;;5058741;28;20339;-59
2021/12/05 15:50:57;;;;;;;6.53;2.08;;;6.40;98.60;;;;;;5044656;28;20267;-56
2021/12/05 15:53:25;;;;;;;7.82;1.70;;;6.40;98.60;;;;;;5028791;28;20196;-57
2021/12/05 15:56:00;;;;;;;6.22;2.20;;;6.40;98.50;;;;;;5077374;28;20047;-56
2021/12/05 15:58:31;;;;;;;6.30;3.20;;;6.50;98.30;;;;;;5058691;28;20070;-58
2021/12/05 16:01:06;;;;;;;11.50;1.67;;;6.40;98.40;;;;;;5075226;28;20487;-58
2021/12/05 16:03:46;;;;;;;7.90;2.45;;;6.50;98.50;;;;;;5056586;28;20051;-57
2021/12/05 16:06:14;;;;;;;12.23;2.30;;;6.40;98.50;;;;;;5076583;28;20052;-59
2021/12/05 16:08:42;;;;;;;4.97;1.92;;;6.50;98.50;;;;;;5040246;28;20562;-58
2021/12/05 16:11:15;;;;;;;5.90;1.27;;;6.40;98.50;;;;;;5076220;28;20044;-58
2021/12/05 16:13:45;;;;;;;5.65;1.70;;;6.50;98.40;;;;;;5058244;28;20081;-58
2021/12/05 16:16:22;;;;;;;7.68;2.55;;;6.40;98.30;;;;;;5071479;28;20056;-58
2021/12/05 16:18:52;;;;;;;7.05;2.85;;;6.40;98.30;;;;;;5054268;28;20049;-58
2021/12/05 16:21:27;;;;;;;10.35;3.95;;;6.40;98.00;;;;;;5070327;28;20052;-58
2021/12/05 16:24:06;;;;;;;4.43;1.00;;;6.30;98.00;;;;;;5029589;28;20049;-59
2021/12/05 16:26:33;;;;;;;6.75;1.45;;;6.20;98.00;;;;;;5068737;28;20101;-58
2021/12/05 16:29:08;;;;;;;2.70;1.08;;;6.20;98.10;;;;;;5057816;28;20491;-58
2021/12/05 16:31:37;;;;;;;3.38;1.15;;;6.20;98.00;;;;;;5069653;28;20056;-58
2021/12/05 16:34:08;;;;;;;9.60;1.50;;;6.10;98.00;;;;;;5055012;28;20400;-59
2021/12/05 16:36:39;;;;;;;6.13;1.58;;;6.10;97.90;;;;;;5039748;28;20147;-59
2021/12/05 16:39:18;;;;;;;8.38;1.30;;;6.10;98.10;;;;;;5055785;28;20053;-59
2021/12/05 16:41:47;;;;;;;14.57;2.88;;;6.10;98.00;;;;;;4711351;28;10000689;-59
2021/12/05 16:44:19;;;;;;;5.65;2.00;;;6.10;98.10;;;;;;4360799;28;10000126;-56
2021/12/05 16:46:55;;;;;;;9.52;1.85;;;6.10;98.10;;;;;;5063087;28;20071;-58
2021/12/05 16:49:30;;;;;;;4.97;1.50;;;6.10;98.40;;;;;;5057175;28;20094;-56
2021/12/05 16:52:01;;;;;;;8.15;2.05;;;6.10;98.20;;;;;;5040261;28;20094;-59
2021/12/05 16:54:32;;;;;;;4.97;1.73;;;6.10;98.10;;;;;;5057007;28;20801;-59
2021/12/05 16:57:13;;;;;;;16.58;2.60;;;6.10;98.10;;;;;;5064161;28;20049;-56
2021/12/05 16:59:44;;;;;;;8.15;1.90;;;6.10;97.90;;;;;;5053998;28;20093;-59
2021/12/05 17:02:18;;;;;;;13.37;2.30;;;6.10;97.70;;;;;;4694044;28;10000531;-61
2021/12/05 17:05:07;;;;;;;8.65;1.65;;;6.00;97.80;;;;;;4703832;28;10000539;-57
2021/12/05 17:07:49;;;;;;;7.30;2.53;;;6.00;97.90;;;;;;5068232;28;20527;-58
2021/12/05 17:10:25;;;;;;;7.70;1.90;;;6.10;97.70;;;;;;5051109;28;20454;-57
2021/12/05 17:13:20;;;;;;;12.98;2.08;;;6.10;97.90;;;;;;5061656;28;20138;-58
2021/12/05 17:15:59;;;;;;;14.73;1.55;;;6.00;97.70;;;;;;5053765;28;20049;-59
2021/12/05 17:18:48;;;;;;;6.63;1.90;;;6.10;97.60;;;;;;5069554;28;20279;-57
2021/12/05 17:21:38;;;;;;;7.90;2.08;;;6.10;97.30;;;;;;5050885;28;20053;-56
2021/12/05 17:24:16;;;;;;;6.10;1.30;;;6.10;97.30;;;;;;5055297;28;20458;-57
2021/12/05 17:26:53;;;;;;;7.13;2.30;;;6.10;97.60;;;;;;5040117;28;20565;-58
2021/12/05 17:29:31;;;;;;;7.57;1.55;;;6.10;97.50;;;;;;5068574;28;20060;-59
2021/12/05 17:32:06;;;;;;;4.60;1.40;;;6.10;97.50;;;;;;5056631;28;20491;-57
2021/12/05 17:34:37;;;;;;;6.40;1.73;;;6.20;97.70;;;;;;5062217;28;20503;-58
2021/12/05 17:37:09;;;;;;;11.27;1.83;;;6.10;97.50;;;;;;5057812;28;20071;-57
2021/12/05 17:39:40;;;;;;;8.73;2.10;;;6.10;97.50;;;;;;5067541;28;20048;-58
2021/12/05 17:42:12;;;;;;;8.00;1.77;;;6.10;97.70;;;;;;5053879;28;20107;-59
2021/12/05 17:44:39;;;;;;;5.30;1.42;;;6.20;98.00;;;;;;5046797;28;20476;-58
2021/12/05 17:47:07;;;;;;;6.57;1.95;;;6.30;98.00;;;;;;5055767;28;20061;-56
2021/12/05 17:49:36;;;;;;;6.13;2.08;;;6.20;97.90;;;;;;5054167;28;20040;-56
2021/12/05 17:52:04;;;;;;;11.95;2.20;;;6.20;97.80;;;;;;5053073;28;20102;-57
2021/12/05 17:54:37;;;;;;;6.43;2.42;;;6.10;97.80;;;;;;5062567;28;20147;-56
2021/12/05 17:57:11;;;;;;;9.02;2.67;;;6.10;97.80;;;;;;5052491;28;20441;-57
2021/12/05 18:05:02;;;;;;;7.13;1.98;;;6.00;97.50;;;;;;5071120;28;20067;-57
2021/12/05 18:07:29;;;;;;;7.75;1.95;;;6.00;97.70;;;;;;5055921;28;20319;-55
2021/12/05 18:09:56;;;;;;;10.65;2.00;;;6.10;97.80;;;;;;5070214;28;20579;-56
2021/12/05 18:12:32;;;;;;;5.57;1.48;;;6.10;97.70;;;;;;5054163;28;20140;-55
2021/12/05 18:15:13;;;;;;;8.88;1.70;;;6.10;97.50;;;;;;5067147;28;20055;-56
2021/12/05 18:17:40;;;;;;;4.88;2.25;;;6.10;97.50;;;;;;5050932;28;20045;-56
2021/12/05 18:20:13;;;;;;;12.10;1.83;;;6.10;97.30;;;;;;5064131;28;20060;-55
2021/12/05 18:22:40;;;;;;;8.73;1.85;;;6.10;97.10;;;;;;5053957;28;20073;-57
2021/12/05 18:25:09;;;;;;;6.63;1.42;;;6.10;97.30;;;;;;5061339;28;20066;-56
2021/12/05 18:27:36;;;;;;;8.77;2.50;;;6.10;97.10;;;;;;5037169;28;20063;-56
2021/12/05 18:30:05;;;;;;;6.85;1.92;;;6.00;97.40;;;;;;5059420;28;20586;-55
2021/12/05 18:32:33;;;;;;;10.80;2.15;;;5.90;97.40;;;;;;5052267;28;20495;-60
2021/12/05 18:35:00;;;;;;;7.10;1.77;;;5.90;97.00;;;;;;5066123;28;20052;-59
2021/12/05 18:37:27;;;;;;;5.30;1.65;;;6.00;97.40;;;;;;5058973;28;20037;-59
2021/12/05 18:39:54;;;;;;;7.47;1.58;;;5.90;97.20;;;;;;5060495;28;20181;-60
2021/12/05 18:42:22;;;;;;;6.70;1.80;;;5.90;97.00;;;;;;5056477;28;20824;-59
2021/12/05 18:44:54;;;;;;;7.25;3.35;;;6.00;97.20;;;;;;5062116;28;20084;-59
2021/12/05 18:47:23;;;;;;;9.10;2.42;;;6.00;97.20;;;;;;5037303;28;20084;-59
2021/12/05 18:49:51;;;;;;;11.02;2.42;;;6.00;97.00;;;;;;5057583;28;20048;-59